Time;durP1;ratioP1;P1;durP2;ratioP2;P2;SDS_P1;SDS_P2;PMS_P1;PMS_P2;Temp;Humidity;BMP_temperature;BMP_pressure;BME280_temperature;BME280_humidity;BME280_pressure;Samples;Min_cycle;Max_cycle;Signal;HPM_P1;HPM_P2
2022/01/16 00:06:29;;;;;;;4.53;3.30;;;28.90;99.90;;;;;;4976396;28;20660;-77
2022/01/16 00:08:56;;;;;;;10.87;4.27;;;29.10;99.90;;;;;;4992275;28;20594;-77
2022/01/16 00:11:24;;;;;;;5.83;3.63;;;28.60;99.90;;;;;;4994994;28;20194;-76
2022/01/16 00:13:51;;;;;;;9.37;3.57;;;28.60;99.90;;;;;;4995334;28;20265;-75
2022/01/16 00:16:19;;;;;;;7.53;3.80;;;29.00;99.90;;;;;;4995240;28;20636;-73
2022/01/16 00:18:52;;;;;;;5.43;3.20;;;29.30;99.90;;;;;;4977955;28;20222;-76
2022/01/16 00:21:36;;;;;;;11.43;3.53;;;29.20;99.90;;;;;;4995274;28;20308;-75
2022/01/16 00:24:04;;;;;;;5.70;3.50;;;29.20;99.90;;;;;;4994164;28;20191;-76
2022/01/16 00:26:32;;;;;;;9.27;3.93;;;29.00;99.90;;;;;;4995037;28;20187;-75
2022/01/16 00:29:00;;;;;;;8.27;3.60;;;29.00;99.90;;;;;;4994916;28;20656;-74
2022/01/16 00:31:30;;;;;;;6.03;3.23;;;28.90;99.90;;;;;;4994868;28;20217;-75
2022/01/16 00:33:57;;;;;;;8.30;3.80;;;28.80;99.90;;;;;;4994989;28;20277;-76
2022/01/16 00:36:25;;;;;;;13.03;4.37;;;28.80;99.90;;;;;;4994711;28;20627;-77
2022/01/16 00:38:53;;;;;;;7.90;3.70;;;28.90;99.90;;;;;;4977522;28;20218;-75
2022/01/16 00:41:22;;;;;;;9.63;3.67;;;28.90;99.90;;;;;;4994644;28;20206;-75
2022/01/16 00:43:50;;;;;;;7.50;3.90;;;28.70;99.90;;;;;;4994825;28;20269;-76
2022/01/16 00:46:18;;;;;;;12.90;3.90;;;29.30;99.90;;;;;;4996619;28;20187;-81
2022/01/16 00:48:46;;;;;;;6.90;3.60;;;29.80;99.90;;;;;;4999219;28;20194;-82
2022/01/16 00:51:16;;;;;;;8.80;3.13;;;29.80;99.90;;;;;;4999053;28;20238;-77
2022/01/16 00:53:43;;;;;;;11.77;4.30;;;29.70;99.90;;;;;;4981362;28;20195;-79
2022/01/16 00:56:12;;;;;;;9.10;3.83;;;30.30;99.90;;;;;;4998592;28;20178;-80
2022/01/16 00:58:40;;;;;;;8.05;3.90;;;31.10;99.90;;;;;;4997911;28;20552;-80
2022/01/16 01:01:08;;;;;;;12.77;3.70;;;30.90;99.90;;;;;;4997570;28;20210;-80
2022/01/16 01:03:37;;;;;;;7.78;3.63;;;30.80;99.90;;;;;;4999309;28;20197;-77
2022/01/16 01:06:06;;;;;;;9.93;3.50;;;32.10;99.90;;;;;;4980603;28;20187;-80
2022/01/16 01:08:34;;;;;;;7.60;3.80;;;32.70;99.90;;;;;;4999831;28;20206;-83
2022/01/16 01:11:05;;;;;;;10.80;3.53;;;32.70;99.90;;;;;;4999284;28;20209;-75
2022/01/16 01:13:44;;;;;;;7.47;3.78;;;32.90;99.90;;;;;;4979366;28;20210;-77
2022/01/16 01:16:15;;;;;;;7.22;3.55;;;33.10;99.90;;;;;;4994457;28;20644;-74
2022/01/16 01:18:44;;;;;;;8.45;4.00;;;32.40;99.90;;;;;;4994248;28;20178;-74
2022/01/16 01:21:26;;;;;;;7.63;4.15;;;31.80;99.90;;;;;;4994620;28;20246;-78
2022/01/16 01:23:54;;;;;;;10.40;4.33;;;31.00;99.90;;;;;;4993332;28;20273;-74
2022/01/16 01:26:26;;;;;;;12.73;4.93;;;30.60;99.90;;;;;;4993858;28;20245;-79
2022/01/16 01:28:54;;;;;;;11.80;5.30;;;30.40;99.90;;;;;;4994871;28;20187;-77
2022/01/16 01:31:22;;;;;;;10.88;4.95;;;30.30;99.90;;;;;;4979112;28;20233;-80
2022/01/16 01:33:49;;;;;;;12.27;5.75;;;30.60;99.90;;;;;;4978322;28;20190;-83
2022/01/16 01:36:17;;;;;;;8.35;4.75;;;31.10;99.90;;;;;;4977016;28;20190;-75
2022/01/16 01:38:44;;;;;;;13.83;5.40;;;31.00;99.90;;;;;;4993725;28;20199;-76
2022/01/16 01:41:14;;;;;;;10.27;5.50;;;30.70;99.90;;;;;;4975633;28;20257;-80
2022/01/16 01:51:46;;;;;;;8.45;4.60;;;33.50;99.90;;;;;;4990224;28;20293;-74
2022/01/16 01:54:14;;;;;;;10.45;4.97;;;33.80;99.90;;;;;;4995493;28;20198;-77
2022/01/16 01:56:42;;;;;;;11.05;5.53;;;33.00;99.90;;;;;;4996220;28;20179;-76
2022/01/16 01:59:12;;;;;;;8.38;5.38;;;33.40;99.90;;;;;;4995740;28;20202;-76
2022/01/16 02:01:50;;;;;;;10.63;5.32;;;32.60;99.90;;;;;;5000335;28;20218;-77
2022/01/16 02:04:18;;;;;;;8.70;4.97;;;32.50;99.90;;;;;;4992340;28;20980;-76
2022/01/16 02:06:45;;;;;;;9.93;5.40;;;32.90;99.90;;;;;;4979532;28;20924;-78
2022/01/16 02:09:13;;;;;;;14.77;5.45;;;32.50;99.90;;;;;;5005842;28;20190;-78
2022/01/16 02:11:46;;;;;;;9.68;5.13;;;31.80;99.90;;;;;;5013519;28;20178;-80
2022/01/16 02:14:26;;;;;;;8.02;5.28;;;31.30;99.90;;;;;;4990366;28;20217;-76
2022/01/16 02:28:12;;;;;;;9.20;5.37;;;30.30;99.90;;;;;;4995089;28;20282;-77
2022/01/16 02:35:56;;;;;;;9.50;5.17;;;30.40;99.90;;;;;;4994790;28;20202;-77
2022/01/16 02:38:24;;;;;;;9.00;5.57;;;31.10;99.90;;;;;;4974253;28;20328;-78
2022/01/16 02:41:02;;;;;;;9.40;6.00;;;30.70;99.90;;;;;;4980142;28;20317;-79
2022/01/16 02:43:34;;;;;;;8.47;5.13;;;30.70;99.90;;;;;;4979224;28;20179;-76
2022/01/16 02:48:47;;;;;;;10.33;5.80;;;30.30;99.90;;;;;;4975445;28;20186;-77
2022/01/16 02:51:20;;;;;;;10.90;5.70;;;30.20;99.90;;;;;;4976506;28;20187;-77
2022/01/16 02:53:49;;;;;;;13.07;5.83;;;30.20;99.90;;;;;;4974630;28;20656;-76
2022/01/16 02:56:25;;;;;;;11.97;5.63;;;30.10;99.90;;;;;;4973204;28;20218;-76
2022/01/16 02:58:56;;;;;;;14.43;5.63;;;30.20;99.90;;;;;;4976098;28;20255;-78
2022/01/16 03:01:29;;;;;;;8.87;5.60;;;30.30;99.90;;;;;;4975700;28;20309;-77
2022/01/16 03:04:00;;;;;;;10.47;5.50;;;30.10;99.90;;;;;;4976120;28;20179;-77
2022/01/16 03:06:29;;;;;;;12.20;4.80;;;30.40;99.90;;;;;;4976153;28;20246;-77
2022/01/16 03:08:57;;;;;;;7.77;4.63;;;31.20;99.90;;;;;;4975011;28;20180;-77
2022/01/16 03:11:35;;;;;;;11.40;5.20;;;32.00;99.90;;;;;;4976050;28;20183;-75
2022/01/16 03:14:09;;;;;;;13.13;5.10;;;32.40;99.90;;;;;;4975850;28;20639;-78
2022/01/16 03:16:39;;;;;;;12.98;4.50;;;32.00;99.90;;;;;;4975439;28;20549;-77
2022/01/16 03:21:53;;;;;;;9.33;4.20;;;31.50;99.90;;;;;;4976247;28;20234;-77
2022/01/16 03:24:39;;;;;;;8.43;4.43;;;30.60;99.90;;;;;;4975034;28;20194;-77
2022/01/16 03:27:20;;;;;;;9.57;4.53;;;30.30;99.90;;;;;;4975167;28;20179;-80
2022/01/16 03:29:57;;;;;;;14.70;5.37;;;30.50;99.90;;;;;;4974320;28;20525;-78
2022/01/16 03:32:25;;;;;;;11.63;4.70;;;31.30;99.90;;;;;;4974100;28;20647;-78
2022/01/16 03:34:52;;;;;;;12.70;5.33;;;32.00;99.90;;;;;;4978256;28;20633;-77
2022/01/16 03:37:22;;;;;;;11.50;4.63;;;32.10;99.90;;;;;;4985843;28;20322;-77
2022/01/16 03:39:49;;;;;;;9.60;4.07;;;32.20;99.90;;;;;;4999248;28;20265;-79
2022/01/16 03:42:25;;;;;;;12.75;4.95;;;32.60;99.90;;;;;;4981945;28;20198;-77
2022/01/16 03:44:53;;;;;;;10.67;4.10;;;32.10;99.90;;;;;;4998482;28;20551;-77
2022/01/16 03:47:23;;;;;;;14.25;4.88;;;31.90;99.90;;;;;;4982114;28;20196;-76
2022/01/16 03:49:52;;;;;;;9.73;4.90;;;32.60;99.90;;;;;;4999355;28;20201;-76
2022/01/16 03:52:29;;;;;;;12.02;5.18;;;32.70;99.90;;;;;;4999550;28;20694;-76
2022/01/16 03:54:56;;;;;;;11.50;4.28;;;32.90;99.90;;;;;;4981792;28;20175;-79
2022/01/16 03:57:26;;;;;;;12.23;4.80;;;32.70;99.90;;;;;;4997069;28;20647;-78
2022/01/16 03:59:53;;;;;;;12.45;4.95;;;32.90;99.90;;;;;;4997610;28;20201;-75
2022/01/16 04:02:21;;;;;;;11.20;4.47;;;33.10;99.90;;;;;;4997923;28;20240;-76
2022/01/16 04:04:50;;;;;;;14.40;5.07;;;33.00;99.90;;;;;;4998244;28;20198;-78
2022/01/16 04:07:25;;;;;;;9.13;4.28;;;33.10;99.90;;;;;;4979989;28;20179;-79
2022/01/16 04:09:53;;;;;;;9.27;3.95;;;33.50;99.90;;;;;;4997887;28;20190;-76
2022/01/16 04:12:23;;;;;;;10.48;4.13;;;33.40;99.90;;;;;;4997624;28;20192;-77
2022/01/16 04:17:20;;;;;;;8.02;3.80;;;33.80;99.90;;;;;;4997430;28;20179;-77
2022/01/16 04:19:51;;;;;;;11.48;4.50;;;33.40;99.90;;;;;;4980425;28;20218;-78
2022/01/16 04:22:21;;;;;;;7.28;4.13;;;33.50;99.90;;;;;;4997980;28;20190;-77
2022/01/16 04:24:48;;;;;;;10.10;4.00;;;32.90;99.90;;;;;;4980640;28;20182;-77
2022/01/16 04:27:15;;;;;;;9.10;4.40;;;32.10;99.90;;;;;;4997887;28;20174;-77
2022/01/16 04:29:49;;;;;;;10.35;4.30;;;31.70;99.90;;;;;;4998458;28;20170;-74
2022/01/16 04:32:18;;;;;;;7.28;4.38;;;31.90;99.90;;;;;;4980044;28;20194;-78
2022/01/16 04:34:48;;;;;;;9.60;4.07;;;31.80;99.90;;;;;;4998392;28;20183;-77
2022/01/16 04:37:15;;;;;;;7.50;4.13;;;31.60;99.90;;;;;;4976505;28;20254;-76
2022/01/16 04:39:50;;;;;;;12.43;4.32;;;31.50;99.90;;;;;;4977047;28;20274;-77
2022/01/16 04:45:04;;;;;;;8.70;3.67;;;31.90;99.90;;;;;;4978218;28;20178;-77
2022/01/16 04:47:36;;;;;;;10.23;4.40;;;32.30;99.90;;;;;;4978400;28;20218;-76
2022/01/16 04:50:04;;;;;;;14.07;4.25;;;32.80;99.90;;;;;;4978495;28;20198;-76
2022/01/16 04:52:31;;;;;;;7.78;4.35;;;32.80;99.90;;;;;;4978505;28;20176;-76
2022/01/16 04:54:59;;;;;;;9.82;3.85;;;33.00;99.90;;;;;;4978387;28;20656;-78
2022/01/16 04:57:26;;;;;;;13.82;4.43;;;32.60;99.90;;;;;;4978844;28;20590;-76
2022/01/16 04:59:55;;;;;;;11.65;3.80;;;31.90;99.90;;;;;;4978618;28;20263;-75
2022/01/16 05:02:23;;;;;;;8.48;3.65;;;31.60;99.90;;;;;;4977546;28;20191;-79
2022/01/16 05:04:51;;;;;;;8.45;3.45;;;32.50;99.90;;;;;;4978461;28;20266;-76
2022/01/16 05:07:18;;;;;;;13.98;4.43;;;33.00;99.90;;;;;;4978013;28;20183;-79
2022/01/16 05:09:52;;;;;;;10.55;3.95;;;32.70;99.90;;;;;;4977662;28;20251;-76
2022/01/16 05:12:44;;;;;;;12.80;3.88;;;32.20;99.90;;;;;;4977354;28;20191;-76
2022/01/16 05:17:54;;;;;;;11.32;4.00;;;32.10;99.90;;;;;;4977257;28;20250;-76
2022/01/16 05:20:23;;;;;;;11.10;3.55;;;32.40;99.90;;;;;;4978439;28;20203;-75
2022/01/16 05:22:51;;;;;;;13.80;4.43;;;32.70;99.90;;;;;;4977557;28;20231;-74
2022/01/16 05:25:19;;;;;;;10.60;3.97;;;32.40;99.90;;;;;;4977867;28;20215;-74
2022/01/16 05:27:47;;;;;;;12.18;4.55;;;31.70;99.90;;;;;;4977059;28;20191;-77
2022/01/16 05:30:14;;;;;;;12.48;3.78;;;31.50;99.90;;;;;;4977331;28;20222;-75
2022/01/16 05:32:42;;;;;;;11.68;3.95;;;31.80;99.90;;;;;;4977775;28;20553;-76
2022/01/16 05:35:10;;;;;;;14.95;4.22;;;32.10;99.90;;;;;;4978569;28;20180;-75
2022/01/16 05:37:37;;;;;;;11.35;3.63;;;32.30;99.90;;;;;;4993392;28;20716;-74
2022/01/16 05:40:05;;;;;;;10.85;3.50;;;32.60;99.90;;;;;;5009756;28;20218;-75
2022/01/16 05:42:33;;;;;;;8.57;3.67;;;32.80;99.90;;;;;;5004943;28;20191;-76
2022/01/16 05:45:00;;;;;;;9.07;3.75;;;32.60;99.90;;;;;;4996242;28;20171;-76
2022/01/16 05:47:28;;;;;;;8.77;3.83;;;32.90;99.90;;;;;;4979411;28;20236;-77
2022/01/16 05:49:57;;;;;;;8.30;3.33;;;33.10;99.90;;;;;;4978407;28;20190;-77
2022/01/16 05:52:24;;;;;;;11.23;3.88;;;33.00;99.90;;;;;;4978043;28;20190;-75
2022/01/16 05:54:54;;;;;;;9.25;3.35;;;33.00;99.90;;;;;;4995485;28;20524;-78
2022/01/16 05:57:22;;;;;;;12.10;3.92;;;33.10;99.90;;;;;;4976733;28;20187;-77
2022/01/16 05:59:49;;;;;;;9.20;3.67;;;33.00;99.90;;;;;;4995777;28;20213;-77
2022/01/16 06:02:16;;;;;;;9.18;3.63;;;33.00;99.90;;;;;;4995587;28;20270;-78
2022/01/16 06:04:44;;;;;;;8.82;3.22;;;32.50;99.90;;;;;;4977385;28;20186;-74
2022/01/16 06:07:11;;;;;;;7.57;3.33;;;32.40;99.90;;;;;;4995191;28;20633;-81
2022/01/16 06:09:38;;;;;;;9.77;3.83;;;32.00;99.90;;;;;;4978314;28;20232;-75
2022/01/16 06:12:07;;;;;;;13.90;4.07;;;31.70;99.90;;;;;;4977630;28;20713;-76
2022/01/16 06:14:35;;;;;;;11.53;4.03;;;31.20;99.90;;;;;;4978143;28;20565;-75
2022/01/16 06:17:02;;;;;;;13.00;3.77;;;31.20;99.90;;;;;;4977323;28;20194;-74
2022/01/16 06:19:30;;;;;;;9.97;4.10;;;31.50;99.90;;;;;;4995122;28;20171;-78
2022/01/16 06:21:57;;;;;;;13.50;4.03;;;31.60;99.90;;;;;;4994789;28;20214;-78
2022/01/16 06:24:24;;;;;;;13.37;3.87;;;31.20;99.90;;;;;;4994720;28;20179;-80
2022/01/16 06:26:52;;;;;;;10.57;3.33;;;30.90;99.90;;;;;;4975883;28;20278;-80
2022/01/16 06:29:25;;;;;;;10.00;3.53;;;31.20;99.90;;;;;;4994755;28;20194;-78
2022/01/16 06:31:53;;;;;;;13.47;3.63;;;31.50;99.90;;;;;;4994970;28;20178;-79
2022/01/16 06:34:23;;;;;;;12.03;3.50;;;31.60;99.90;;;;;;4995326;28;20203;-78
2022/01/16 06:36:50;;;;;;;10.20;3.27;;;31.40;99.90;;;;;;4994890;28;20305;-78
2022/01/16 06:39:19;;;;;;;11.63;3.43;;;31.10;99.90;;;;;;4977545;28;20675;-78
2022/01/16 06:41:46;;;;;;;15.17;3.77;;;30.70;99.90;;;;;;4994578;28;20218;-76
2022/01/16 06:44:14;;;;;;;11.27;3.67;;;30.80;99.90;;;;;;4993926;28;20187;-77
2022/01/16 06:46:41;;;;;;;10.53;3.37;;;30.50;99.90;;;;;;4993808;28;20197;-78
2022/01/16 06:49:10;;;;;;;10.40;3.20;;;30.30;99.90;;;;;;4993895;28;20186;-78
2022/01/16 06:51:38;;;;;;;11.23;3.20;;;30.20;99.90;;;;;;4994286;28;20186;-80
2022/01/16 06:54:06;;;;;;;9.97;2.97;;;29.90;99.90;;;;;;4994170;28;20222;-78
2022/01/16 06:56:33;;;;;;;9.90;3.30;;;30.20;99.90;;;;;;4993678;28;20198;-76
2022/01/16 06:59:01;;;;;;;11.33;3.27;;;30.20;99.90;;;;;;4993707;28;20199;-77
2022/01/16 07:01:29;;;;;;;8.03;3.23;;;30.10;99.90;;;;;;4997017;28;20245;-77
2022/01/16 07:03:57;;;;;;;12.90;3.73;;;29.90;99.90;;;;;;4995008;28;20171;-78
2022/01/16 07:06:25;;;;;;;11.53;3.83;;;30.00;99.90;;;;;;4994619;28;20582;-75
2022/01/16 07:08:53;;;;;;;13.83;3.93;;;29.50;99.90;;;;;;4995532;28;20237;-76
2022/01/16 07:11:21;;;;;;;10.03;3.57;;;29.30;99.90;;;;;;4981027;28;20237;-77
2022/01/16 07:13:48;;;;;;;17.83;3.87;;;29.10;99.90;;;;;;4998200;28;20178;-76
2022/01/16 07:16:16;;;;;;;13.50;4.23;;;29.10;99.90;;;;;;4998186;28;20653;-76
2022/01/16 07:18:43;;;;;;;18.17;3.90;;;29.10;99.90;;;;;;4980995;28;20562;-77
2022/01/16 07:21:13;;;;;;;13.57;3.90;;;28.90;99.90;;;;;;4980182;28;20244;-76
2022/01/16 07:23:46;;;;;;;16.67;4.37;;;28.80;99.90;;;;;;4997693;28;20186;-75
2022/01/16 07:26:17;;;;;;;18.23;4.97;;;29.10;99.90;;;;;;4979655;28;20206;-74
2022/01/16 07:28:46;;;;;;;9.50;3.57;;;29.00;99.90;;;;;;4997674;28;20221;-75
2022/01/16 07:31:14;;;;;;;11.47;4.00;;;28.70;99.90;;;;;;4997451;28;20269;-76
2022/01/16 07:33:41;;;;;;;19.87;4.50;;;28.50;99.90;;;;;;4998061;28;20187;-75
2022/01/16 07:36:09;;;;;;;13.60;3.90;;;28.40;99.90;;;;;;4996938;28;20648;-74
2022/01/16 07:38:36;;;;;;;13.10;3.63;;;28.70;99.90;;;;;;4997651;28;20230;-76
2022/01/16 07:41:03;;;;;;;18.93;4.53;;;28.60;99.90;;;;;;4997467;28;20626;-77
2022/01/16 07:43:31;;;;;;;23.80;4.17;;;28.50;99.90;;;;;;4997856;28;20237;-76
2022/01/16 07:45:58;;;;;;;20.37;3.83;;;28.10;99.90;;;;;;4979124;28;20191;-77
2022/01/16 07:48:30;;;;;;;12.20;3.47;;;28.20;99.90;;;;;;4996769;28;20191;-75
2022/01/16 07:50:57;;;;;;;8.93;3.70;;;28.40;99.90;;;;;;4979177;28;20179;-74
2022/01/16 07:53:25;;;;;;;17.13;4.37;;;28.30;99.90;;;;;;4979136;28;20565;-74
2022/01/16 07:55:53;;;;;;;14.50;4.30;;;28.30;99.90;;;;;;4996258;28;20199;-75
2022/01/16 07:58:21;;;;;;;13.43;4.03;;;28.10;99.90;;;;;;4977846;28;20197;-74
2022/01/16 08:00:50;;;;;;;12.30;4.20;;;28.00;99.90;;;;;;4978456;28;20206;-75
2022/01/16 08:03:17;;;;;;;13.33;3.80;;;27.70;99.90;;;;;;4979115;28;20719;-74
2022/01/16 08:05:46;;;;;;;16.40;4.33;;;27.30;99.90;;;;;;4996226;28;20691;-74
2022/01/16 08:08:13;;;;;;;18.13;5.07;;;27.40;99.90;;;;;;4996025;28;20183;-74
2022/01/16 08:10:41;;;;;;;15.10;4.33;;;27.60;99.90;;;;;;4996101;28;20174;-75
2022/01/16 08:13:09;;;;;;;11.97;3.87;;;27.80;99.90;;;;;;4978524;28;20179;-77
2022/01/16 08:15:38;;;;;;;17.57;4.00;;;27.60;99.90;;;;;;4994511;28;20560;-74
2022/01/16 08:18:05;;;;;;;13.80;4.07;;;27.40;99.90;;;;;;4994654;28;20190;-76
2022/01/16 08:20:35;;;;;;;15.07;3.90;;;27.50;99.90;;;;;;4994569;28;20605;-74
2022/01/16 08:23:03;;;;;;;15.87;4.40;;;27.20;99.90;;;;;;4996345;28;20206;-74
2022/01/16 08:25:32;;;;;;;14.60;4.03;;;27.10;99.90;;;;;;4995326;28;20193;-74
2022/01/16 08:27:59;;;;;;;11.83;3.77;;;27.00;99.90;;;;;;4994863;28;20187;-74
2022/01/16 08:30:26;;;;;;;12.97;4.03;;;26.80;99.90;;;;;;4977103;28;20671;-74
2022/01/16 08:32:54;;;;;;;15.27;4.60;;;26.70;99.90;;;;;;4994818;28;20191;-74
2022/01/16 08:35:22;;;;;;;15.20;4.00;;;26.60;99.90;;;;;;4995143;28;20221;-77
2022/01/16 08:37:49;;;;;;;13.90;4.10;;;26.60;99.90;;;;;;4977636;28;20720;-76
2022/01/16 08:40:17;;;;;;;14.57;4.27;;;26.50;99.90;;;;;;4995095;28;20705;-75
2022/01/16 08:42:44;;;;;;;17.77;4.53;;;26.30;99.90;;;;;;4995387;28;20183;-77
2022/01/16 08:45:12;;;;;;;12.67;4.10;;;26.20;99.90;;;;;;4977632;28;20267;-79
2022/01/16 08:47:40;;;;;;;11.83;3.90;;;26.10;99.90;;;;;;4995605;28;20186;-77
2022/01/16 08:50:09;;;;;;;16.90;4.27;;;26.10;99.90;;;;;;4995396;28;20668;-74
2022/01/16 08:52:38;;;;;;;16.90;4.37;;;25.90;99.90;;;;;;4995606;28;20794;-75
2022/01/16 08:55:11;;;;;;;15.97;4.27;;;25.80;99.90;;;;;;4995287;28;20237;-75
2022/01/16 08:57:39;;;;;;;14.57;4.60;;;25.70;99.90;;;;;;4977061;28;20198;-75
2022/01/16 09:00:08;;;;;;;20.13;5.17;;;25.60;99.90;;;;;;4994288;28;20217;-75
2022/01/16 09:02:36;;;;;;;11.80;4.50;;;25.50;99.90;;;;;;4994574;28;20229;-74
2022/01/16 09:05:05;;;;;;;26.07;4.87;;;25.50;99.90;;;;;;4994747;28;20174;-74
2022/01/16 09:07:35;;;;;;;19.07;4.63;;;25.40;99.90;;;;;;4994435;28;20557;-76
2022/01/16 09:10:04;;;;;;;19.80;5.43;;;25.40;99.90;;;;;;4994275;28;20555;-74
2022/01/16 09:12:31;;;;;;;12.90;4.90;;;25.40;99.90;;;;;;4994533;28;20213;-75
2022/01/16 09:14:59;;;;;;;14.07;4.50;;;25.30;99.90;;;;;;4994500;28;20182;-75
2022/01/16 09:17:27;;;;;;;15.40;4.97;;;25.40;99.90;;;;;;4994232;28;20643;-73
2022/01/16 09:19:54;;;;;;;21.87;5.03;;;25.30;99.90;;;;;;4976685;28;20194;-72
2022/01/16 09:22:22;;;;;;;21.17;5.80;;;25.30;99.90;;;;;;4993757;28;20217;-73
2022/01/16 09:24:49;;;;;;;19.03;5.00;;;25.20;99.90;;;;;;4994272;28;20194;-72
2022/01/16 09:27:18;;;;;;;16.60;4.90;;;25.20;99.90;;;;;;4994795;28;20179;-72
2022/01/16 09:29:46;;;;;;;18.27;5.17;;;25.20;99.90;;;;;;4994466;28;20240;-73
2022/01/16 09:32:16;;;;;;;21.07;5.10;;;25.10;99.90;;;;;;4986218;28;20186;-74
2022/01/16 09:34:44;;;;;;;13.33;5.03;;;25.10;99.90;;;;;;4994778;28;20175;-75
2022/01/16 09:37:11;;;;;;;17.23;5.03;;;25.00;99.90;;;;;;4994648;28;20222;-74
2022/01/16 09:39:40;;;;;;;14.50;4.60;;;25.00;99.90;;;;;;4994902;28;20187;-74
2022/01/16 09:42:08;;;;;;;16.97;4.93;;;24.90;99.90;;;;;;4992617;28;20308;-74
2022/01/16 09:44:39;;;;;;;18.33;5.07;;;24.90;99.90;;;;;;4993890;28;20201;-73
2022/01/16 09:47:09;;;;;;;16.23;5.43;;;24.90;99.90;;;;;;4994004;28;20191;-73
2022/01/16 09:49:36;;;;;;;18.57;5.43;;;24.90;99.90;;;;;;4994565;28;20190;-73
2022/01/16 09:52:06;;;;;;;16.90;5.17;;;24.90;99.90;;;;;;4994761;28;20344;-76
2022/01/16 09:54:36;;;;;;;28.87;5.70;;;24.80;99.90;;;;;;4994731;28;20641;-75
2022/01/16 09:57:05;;;;;;;22.40;5.20;;;24.80;99.90;;;;;;4976800;28;20575;-75
2022/01/16 09:59:32;;;;;;;20.07;5.50;;;24.80;99.90;;;;;;4994590;28;20174;-76
2022/01/16 10:02:08;;;;;;;17.33;6.23;;;24.80;99.90;;;;;;4992850;28;20215;-75
2022/01/16 10:04:41;;;;;;;18.87;5.50;;;24.80;99.90;;;;;;4994131;28;20178;-76
2022/01/16 10:07:15;;;;;;;16.87;5.27;;;24.60;99.90;;;;;;4992726;28;20656;-75
2022/01/16 10:10:04;;;;;;;16.17;4.67;;;24.60;99.90;;;;;;4978779;28;20194;-75
2022/01/16 10:12:33;;;;;;;16.03;4.50;;;24.60;99.90;;;;;;4994454;28;20193;-77
2022/01/16 10:15:19;;;;;;;17.23;4.90;;;24.50;99.90;;;;;;4994400;28;20210;-76
2022/01/16 10:17:49;;;;;;;15.93;5.00;;;24.60;99.90;;;;;;4994384;28;20174;-77
2022/01/16 10:20:18;;;;;;;17.47;4.93;;;24.50;99.90;;;;;;4998680;28;20197;-77
2022/01/16 10:22:57;;;;;;;18.37;4.90;;;24.50;99.90;;;;;;5002642;28;20197;-79
2022/01/16 10:25:47;;;;;;;19.90;5.73;;;24.50;99.90;;;;;;4998682;28;20189;-73
2022/01/16 10:28:41;;;;;;;22.53;5.47;;;24.30;99.90;;;;;;5000267;28;20190;-77
2022/01/16 10:31:19;;;;;;;16.47;4.67;;;24.30;99.90;;;;;;4993073;28;20181;-76
2022/01/16 10:33:47;;;;;;;18.90;5.23;;;24.30;99.90;;;;;;4980647;28;20185;-78
2022/01/16 10:36:30;;;;;;;21.33;5.60;;;24.20;99.90;;;;;;4998689;28;20257;-74
2022/01/16 10:39:12;;;;;;;16.73;5.30;;;24.20;99.90;;;;;;4978155;28;20257;-74
2022/01/16 10:41:40;;;;;;;20.27;6.20;;;24.20;99.90;;;;;;4994540;28;20221;-76
2022/01/16 10:44:30;;;;;;;17.40;5.03;;;24.20;99.90;;;;;;4999873;28;20180;-76
2022/01/16 10:46:58;;;;;;;21.70;5.37;;;24.20;99.90;;;;;;4995908;28;20189;-76
2022/01/16 10:49:26;;;;;;;12.40;5.03;;;24.20;99.90;;;;;;4994957;28;20735;-75
2022/01/16 10:52:11;;;;;;;18.93;5.70;;;24.20;99.90;;;;;;4994476;28;20217;-76
2022/01/16 10:54:40;;;;;;;17.73;6.37;;;24.10;99.90;;;;;;4994293;28;20182;-75
2022/01/16 10:57:37;;;;;;;15.30;5.50;;;24.20;99.90;;;;;;4993927;28;20248;-75
2022/01/16 11:00:22;;;;;;;20.90;5.30;;;24.20;99.90;;;;;;4978138;28;20245;-75
2022/01/16 11:02:52;;;;;;;21.30;4.93;;;24.10;99.90;;;;;;4977733;28;20197;-77
2022/01/16 11:05:22;;;;;;;21.20;5.33;;;24.10;99.90;;;;;;4977061;28;20217;-76
2022/01/16 11:08:01;;;;;;;17.03;5.50;;;24.00;99.90;;;;;;4994501;28;20248;-77
2022/01/16 11:10:35;;;;;;;19.60;5.53;;;24.10;99.90;;;;;;4994540;28;20210;-76
2022/01/16 11:13:11;;;;;;;18.90;5.67;;;24.00;99.90;;;;;;4994352;28;20270;-76
2022/01/16 11:15:43;;;;;;;19.30;5.60;;;23.90;99.90;;;;;;4994386;28;20175;-77
2022/01/16 11:18:19;;;;;;;22.17;5.63;;;23.90;99.90;;;;;;4995033;28;20675;-76
2022/01/16 11:23:33;;;;;;;21.80;5.73;;;23.80;99.90;;;;;;4994194;28;20236;-76
2022/01/16 11:26:02;;;;;;;20.00;5.53;;;23.80;99.90;;;;;;4994106;28;20613;-75
2022/01/16 11:28:30;;;;;;;15.87;5.20;;;23.70;99.90;;;;;;4994207;28;20171;-73
2022/01/16 11:31:01;;;;;;;23.13;5.40;;;23.60;99.90;;;;;;4994120;28;20646;-75
2022/01/16 11:33:30;;;;;;;19.03;5.73;;;23.60;99.90;;;;;;4993992;28;20174;-77
2022/01/16 11:36:16;;;;;;;19.03;5.33;;;23.50;99.90;;;;;;4993761;28;20182;-75
2022/01/16 11:38:54;;;;;;;16.20;5.00;;;23.40;99.90;;;;;;4993305;28;20229;-74
2022/01/16 11:41:34;;;;;;;18.97;5.83;;;23.40;99.90;;;;;;4997466;28;20222;-74
2022/01/16 11:44:06;;;;;;;19.90;5.67;;;23.40;99.90;;;;;;4993291;28;20183;-74
2022/01/16 11:46:39;;;;;;;20.80;5.93;;;23.30;99.90;;;;;;5004138;28;20189;-76
2022/01/16 11:49:17;;;;;;;15.53;5.10;;;23.30;99.90;;;;;;4993277;28;20191;-75
2022/01/16 11:51:51;;;;;;;21.47;5.37;;;23.20;99.90;;;;;;5004986;28;20217;-73
2022/01/16 11:54:33;;;;;;;18.53;5.37;;;23.20;99.90;;;;;;4993697;28;20277;-74
2022/01/16 11:57:07;;;;;;;23.47;5.67;;;23.10;99.90;;;;;;4994501;28;20181;-76
2022/01/16 11:59:35;;;;;;;18.33;5.63;;;23.10;99.90;;;;;;4997264;28;20659;-75
2022/01/16 12:02:19;;;;;;;16.17;5.73;;;23.10;99.90;;;;;;4997567;28;20699;-74
2022/01/16 12:04:54;;;;;;;16.37;5.73;;;23.10;99.90;;;;;;4997540;28;20177;-77
2022/01/16 12:07:21;;;;;;;18.97;6.13;;;23.10;99.90;;;;;;4996921;28;20592;-75
2022/01/16 12:09:50;;;;;;;19.37;5.77;;;23.00;99.90;;;;;;4979502;28;20529;-75
2022/01/16 12:12:17;;;;;;;17.70;5.70;;;23.00;99.90;;;;;;4996773;28;20193;-76
2022/01/16 12:14:52;;;;;;;17.63;6.13;;;23.00;99.90;;;;;;4996956;28;20615;-75
2022/01/16 12:20:17;;;;;;;17.07;5.83;;;23.10;99.90;;;;;;4996524;28;20183;-75
2022/01/16 12:23:04;;;;;;;14.07;6.00;;;23.10;99.90;;;;;;4996707;28;20194;-74
2022/01/16 12:25:36;;;;;;;18.57;5.40;;;23.10;99.90;;;;;;4996968;28;20189;-76
2022/01/16 12:28:15;;;;;;;21.60;5.97;;;23.00;99.90;;;;;;4996499;28;20634;-74
2022/01/16 12:30:52;;;;;;;18.20;5.70;;;23.00;99.90;;;;;;4996661;28;20178;-72
2022/01/16 12:33:41;;;;;;;23.33;5.73;;;23.00;99.90;;;;;;4997196;28;20639;-72
2022/01/16 12:36:13;;;;;;;19.50;6.17;;;22.90;99.90;;;;;;4996706;28;20178;-72
2022/01/16 12:39:04;;;;;;;19.37;5.20;;;22.80;99.90;;;;;;4996196;28;20220;-73
2022/01/16 12:41:37;;;;;;;20.23;6.10;;;22.80;99.90;;;;;;4994563;28;20217;-73
2022/01/16 12:44:13;;;;;;;11.87;5.80;;;22.70;99.90;;;;;;4996570;28;20598;-74
2022/01/16 12:46:44;;;;;;;17.20;6.27;;;22.70;99.90;;;;;;4978832;28;20542;-73
2022/01/16 12:49:18;;;;;;;17.13;5.83;;;22.70;99.90;;;;;;4996125;28;20182;-73
2022/01/16 12:51:48;;;;;;;17.17;5.67;;;22.70;99.90;;;;;;4997165;28;20232;-73
2022/01/16 12:54:17;;;;;;;19.80;5.83;;;22.70;99.90;;;;;;4997578;28;20269;-73
2022/01/16 12:56:53;;;;;;;13.70;6.00;;;22.70;99.90;;;;;;4995779;28;20179;-74
2022/01/16 12:59:26;;;;;;;20.40;6.27;;;22.70;99.90;;;;;;4995380;28;20188;-76
2022/01/16 13:01:55;;;;;;;18.73;6.07;;;22.70;99.90;;;;;;4995718;28;20230;-73
2022/01/16 13:04:27;;;;;;;18.37;6.63;;;22.60;99.90;;;;;;4996136;28;20214;-74
2022/01/16 13:06:59;;;;;;;23.60;6.00;;;22.60;99.90;;;;;;4976939;28;20640;-73
2022/01/16 13:09:28;;;;;;;19.13;6.50;;;22.50;99.90;;;;;;4995821;28;20658;-73
2022/01/16 13:11:59;;;;;;;17.80;5.80;;;22.40;99.90;;;;;;4978202;28;20186;-73
2022/01/16 13:14:32;;;;;;;17.33;5.60;;;22.40;99.90;;;;;;4995506;28;20193;-73
2022/01/16 13:17:02;;;;;;;22.70;6.17;;;22.40;99.90;;;;;;4995124;28;20182;-73
2022/01/16 13:19:39;;;;;;;20.73;6.60;;;22.40;99.90;;;;;;4977888;28;20224;-74
2022/01/16 13:22:12;;;;;;;17.87;6.73;;;22.40;99.90;;;;;;4995664;28;20209;-74
2022/01/16 13:24:47;;;;;;;20.33;7.00;;;22.40;99.90;;;;;;4995446;28;20171;-76
2022/01/16 13:27:26;;;;;;;19.97;6.10;;;22.40;99.90;;;;;;4995385;28;20178;-76
2022/01/16 13:29:54;;;;;;;15.63;5.93;;;22.30;99.90;;;;;;4995782;28;20182;-75
2022/01/16 13:32:28;;;;;;;21.50;6.13;;;22.30;99.90;;;;;;4977757;28;20232;-76
2022/01/16 13:34:57;;;;;;;23.43;6.40;;;22.30;99.90;;;;;;4995472;28;20182;-76
2022/01/16 13:37:32;;;;;;;16.77;6.30;;;22.30;99.90;;;;;;4994638;28;20740;-75
2022/01/16 13:40:06;;;;;;;17.40;6.67;;;22.40;99.90;;;;;;4994651;28;20181;-76
2022/01/16 13:45:39;;;;;;;16.40;5.70;;;22.50;99.90;;;;;;4994523;28;20593;-75
2022/01/16 13:48:08;;;;;;;22.00;5.27;;;22.60;99.90;;;;;;4994643;28;20239;-75